Aérodrome :
LOGIN :

S'inscrire | Disclaimer

   EN    FR    IT 

 










Légende :    VFR   VFR Marginal   IFR   IFR Intensif   IFR Très Intensif
Visi : 
Plafond : 
>= 8 km
>= 3000ft
5 à 8 km
1000 à 3000 ft
1500m à 5 km
500 à 1000 ft
800 à 1500m
200 à 500 ft
< 800m
< 200 ft
Symboles :   Orages  Brouillard  Fortes neiges  Fortes précipitations  Vent > 20 kt
SIGMETs :   Divers  Orages  Givrage  Turbulence  Onde Orograph.  Cendres Volcan.







- Altitude de l'aérodrome : 479 ft
- Code IATA : DOL
- Voir les cartes d'approche


LFRG - Deauville

DERNIER METAR :
  • 280630Z AUTO 24005KT 200V260 9999 OVC010 14/14 Q0999 BECMG BKN020

METARs EXPIRÉS :
  • 280600Z AUTO 22006KT 9999 OVC009 14/13 Q0999 BECMG BKN020
  • 280530Z AUTO 25005KT 220V280 9999 OVC006 13/13 Q0999
  • 280500Z AUTO 25008KT 220V280 9000 BKN003 OVC007 13/13 Q1000
  • 280430Z AUTO 25008KT 4800 BR OVC002 13/13 Q1000
  • 280400Z AUTO 25008KT 220V280 6000 OVC003 13/13 Q1000

TAF TAF LFRG
Valide du 28 à 06h jusqu'au 28 à 15h UTC


280500Z 2806/2815 24007KT 9999 BKN005
BECMG 2806/2809 BKN020
TEMPO 2809/2811 5000 SHRA BKN013TCU
TEMPO 2811/2815 4000 SHRA BKN015CB
PROB30
TEMPO 2811/2815 3000 TSRA
BECMG 2813/2815 32007KT
ATIS : +33 2 31 65 65 36
Pas de NOTAMs connus pour ce terrain.



MET'MAP, la Météo Aéronautique d'un coup d'oeil ! - Copyright ORBIFLY Décembre 2007 - Disclaimer

ORBIFLY MET'MAP TEAM :

Programmation & Développement : Alexandra Zaïnal
Conception & Développement : Baudouin d'Aumeries
Co-Programmation & Développement : Marc-Olivier Méhu
Soutien technique & logistique : Manuel Goepfert

Contact : metmap@orbifly.com




SOURCES & CREDITS :

   NOAA